Vohburg — V2OW7 — position and weather

sailwx.info

Track history (hours):
 
Tides and Currents Weather Stations Pressure Air Temp Water Temp Dewpoint Dewpoint Depression Visibility Wind Speed Wind Dir Waves Ship Positions

Vohburg

Last reported at 2015-Mar-30 16:33 UTC. Time now 2015-Mar-30 17:30 UTC.
Position N 51°07' E 003°45'.

Length 140 m; draft 5.8 m.

Type: Ship (hazmat cat A). MMSI: 305773000.

Date/timePositionNaut miles runAvg speedWind from/ knotsBaromVisibWave heightAir tempDewpointWater temp
2015-Mar-30 16:33N 51°07' E 003°45'0 0.0
2015-Mar-30 15:29N 51°07' E 003°45'0 0.0
2015-Mar-30 14:32N 51°07' E 003°45'0 0.0
2015-Mar-30 13:32N 51°07' E 003°45'6 5.7
2015-Mar-30 12:34N 51°12' E 003°48'7 7.3
2015-Mar-30 11:34N 51°19' E 003°49'2 1.8
2015-Mar-30 10:33N 51°21' E 003°48'10 9.9
2015-Mar-30 09:33N 51°26' E 003°34'1615.8
2015-Mar-30 08:33N 51°39' E 003°19'1010.0
2015-Mar-30 07:33N 51°45' E 003°06'4611.4
2015-Mar-30 03:32N 52°17' E 002°13'1414.7
2015-Mar-30 02:33N 52°31' E 002°04'1414.3
2015-Mar-30 01:34N 52°44' E 001°55'1414.1
2015-Mar-30 00:33N 52°53' E 001°37'1413.8
2015-Mar-29 23:33N 53°01' E 001°19'3812.7
2015-Mar-29 20:34N 53°29' E 000°35'1313.0
2015-Mar-29 19:33N 53°41' E 000°27'1313.0
2015-Mar-29 18:33N 53°52' E 000°17'1312.8
2015-Mar-29 17:33N 54°04' E 000°08'1312.8
2015-Mar-29 16:33N 54°14' W 000°06'1313.4
2015-Mar-29 15:33N 54°24' W 000°20'1413.8
2015-Mar-29 14:33N 54°35' W 000°35'1413.7
2015-Mar-29 13:33N 54°40' W 000°58'8 7.6
2015-Mar-29 12:34N 54°36' W 001°09'0 0.0
2015-Mar-29 11:31N 54°36' W 001°09'0 0.0
2015-Mar-29 10:31N 54°36' W 001°09'0 0.0
2015-Mar-29 09:22N 54°36' W 001°09'0 0.0
2015-Mar-29 08:19N 54°36' W 001°09'0 0.0
2015-Mar-29 07:22N 54°36' W 001°09'6 2.0
2015-Mar-29 04:33N 54°41' W 001°05'1212.2
2015-Mar-29 03:32N 54°46' W 000°45'3 3.3
2015-Mar-29 02:33N 54°47' W 000°51'5 5.0
2015-Mar-29 01:33N 54°47' W 000°42'7 7.3
2015-Mar-29 00:33N 54°50' W 000°31'1110.8
2015-Mar-28 23:33N 54°54' W 000°13'38713.2
2015-Mar-27 18:18N 57°45' E 010°13'1013.4
2015-Mar-27 17:34N 57°48' E 010°31'1110.9
2015-Mar-27 16:33N 57°46' E 010°51'1212.6
2015-Mar-27 15:34N 57°37' E 011°07'1313.1
2015-Mar-27 14:33N 57°28' E 011°26'1312.7
2015-Mar-27 13:34N 57°17' E 011°34'1312.6
2015-Mar-27 12:34N 57°05' E 011°42'1312.7
2015-Mar-27 11:34N 56°53' E 011°49'1312.8
2015-Mar-27 10:34N 56°41' E 011°57'1313.4
2015-Mar-27 09:34N 56°28' E 012°07'1313.0
2015-Mar-27 08:33N 56°18' E 012°20'1717.2
2015-Mar-27 07:33N 56°04' E 012°38'1313.0
2015-Mar-27 06:33N 55°51' E 012°44'1312.8
2015-Mar-27 05:33N 55°39' E 012°42'1211.6
2015-Mar-27 04:33N 55°27' E 012°42'1010.1
2015-Mar-27 03:33N 55°17' E 012°46'1211.9
2015-Mar-27 02:33N 55°15' E 013°07'1212.2
2015-Mar-27 01:33N 55°15' E 013°28'1212.1
2015-Mar-27 00:33N 55°14' E 013°50'1212.2
2015-Mar-26 23:33N 55°14' E 014°11'1111.4
2015-Mar-26 22:33N 55°20' E 014°27'1312.9
2015-Mar-26 21:34N 55°29' E 014°44'1313.0
2015-Mar-26 20:34N 55°36' E 015°03'1412.9
2015-Mar-26 19:29N 55°43' E 015°25'339 7.2
2015-Mar-24 20:09N 59°35' E 023°06'1017.6
2015-Mar-24 19:34N 59°39' E 023°26'1817.6
2015-Mar-24 18:31N 59°44' E 024°00'1717.5
2015-Mar-24 17:33N 59°49' E 024°33'2516.6
2015-Mar-24 16:04N 60°05' E 025°10'714.2
2015-Mar-24 15:33N 60°12' E 025°13'1 1.1
2015-Mar-24 14:33N 60°13' E 025°12'0 0.0
2015-Mar-24 13:33N 60°13' E 025°12'0 0.0
2015-Mar-24 12:33N 60°13' E 025°12'0 0.0
2015-Mar-24 11:33N 60°13' E 025°12'0 0.0
2015-Mar-24 10:32N 60°13' E 025°12'0 0.0
2015-Mar-24 09:32N 60°13' E 025°12'0 0.0
2015-Mar-24 08:32N 60°13' E 025°12'0 0.0
2015-Mar-24 07:32N 60°13' E 025°12'0 0.0
2015-Mar-24 06:32N 60°13' E 025°12'0 0.0
2015-Mar-24 05:32N 60°13' E 025°12'0 0.0
2015-Mar-24 04:32N 60°13' E 025°12'0 0.0
2015-Mar-24 03:32N 60°13' E 025°12'0 0.0
2015-Mar-24 02:32N 60°13' E 025°12'0 0.0
2015-Mar-24 01:29N 60°13' E 025°12'0 0.0
2015-Mar-24 00:32N 60°13' E 025°12'0 0.0
2015-Mar-23 23:32N 60°13' E 025°12'0 0.0
2015-Mar-23 22:32N 60°13' E 025°12'0 0.0
2015-Mar-23 21:32N 60°13' E 025°12'0 0.4
2015-Mar-23 20:33N 60°13' E 025°12'34 3.4
2015-Mar-23 10:31N 59°59' E 026°15'9 9.0
2015-Mar-23 09:33N 60°01' E 026°32'9 9.1
2015-Mar-23 08:33N 60°01' E 026°50'9 9.0
2015-Mar-23 07:33N 60°01' E 027°08'9 0.2
2015-Mar-21 19:10N 59°59' E 026°50'812.0
2015-Mar-21 18:30N 59°59' E 026°34'4811.9
2015-Mar-21 14:26N 59°47' E 025°00'1112.0
2015-Mar-21 13:34N 59°45' E 024°40'2611.9
2015-Mar-21 11:20N 59°38' E 023°49'1012.1
2015-Mar-21 10:32N 59°35' E 023°31'  
Track history (hours):
 
Tides and Currents Weather Stations Pressure Air Temp Water Temp Dewpoint Dewpoint Depression Visibility Wind Speed Wind Dir Waves Ship Positions

Vohburg

Last reported at 2015-Mar-30 16:33 UTC. Time now 2015-Mar-30 17:30 UTC.
Position N 51°07' E 003°45'.

Length 140 m; draft 5.8 m.

Type: Ship (hazmat cat A). MMSI: 305773000.

Date/timePositionNaut miles runAvg speedWind from/ knotsBaromVisibWave heightAir tempDewpointWater temp
2015-Mar-30 16:33N 51°07' E 003°45'0 0.0
2015-Mar-30 15:29N 51°07' E 003°45'0 0.0
2015-Mar-30 14:32N 51°07' E 003°45'0 0.0
2015-Mar-30 13:32N 51°07' E 003°45'6 5.7
2015-Mar-30 12:34N 51°12' E 003°48'7 7.3
2015-Mar-30 11:34N 51°19' E 003°49'2 1.8
2015-Mar-30 10:33N 51°21' E 003°48'10 9.9
2015-Mar-30 09:33N 51°26' E 003°34'1615.8
2015-Mar-30 08:33N 51°39' E 003°19'1010.0
2015-Mar-30 07:33N 51°45' E 003°06'4611.4
2015-Mar-30 03:32N 52°17' E 002°13'1414.7
2015-Mar-30 02:33N 52°31' E 002°04'1414.3
2015-Mar-30 01:34N 52°44' E 001°55'1414.1
2015-Mar-30 00:33N 52°53' E 001°37'1413.8
2015-Mar-29 23:33N 53°01' E 001°19'3812.7
2015-Mar-29 20:34N 53°29' E 000°35'1313.0
2015-Mar-29 19:33N 53°41' E 000°27'1313.0
2015-Mar-29 18:33N 53°52' E 000°17'1312.8
2015-Mar-29 17:33N 54°04' E 000°08'1312.8
2015-Mar-29 16:33N 54°14' W 000°06'1313.4
2015-Mar-29 15:33N 54°24' W 000°20'1413.8
2015-Mar-29 14:33N 54°35' W 000°35'1413.7
2015-Mar-29 13:33N 54°40' W 000°58'8 7.6
2015-Mar-29 12:34N 54°36' W 001°09'0 0.0
2015-Mar-29 11:31N 54°36' W 001°09'0 0.0
2015-Mar-29 10:31N 54°36' W 001°09'0 0.0
2015-Mar-29 09:22N 54°36' W 001°09'0 0.0
2015-Mar-29 08:19N 54°36' W 001°09'0 0.0
2015-Mar-29 07:22N 54°36' W 001°09'6 2.0
2015-Mar-29 04:33N 54°41' W 001°05'1212.2
2015-Mar-29 03:32N 54°46' W 000°45'3 3.3
2015-Mar-29 02:33N 54°47' W 000°51'5 5.0
2015-Mar-29 01:33N 54°47' W 000°42'7 7.3
2015-Mar-29 00:33N 54°50' W 000°31'1110.8
2015-Mar-28 23:33N 54°54' W 000°13'38713.2
2015-Mar-27 18:18N 57°45' E 010°13'1013.4
2015-Mar-27 17:34N 57°48' E 010°31'1110.9
2015-Mar-27 16:33N 57°46' E 010°51'1212.6
2015-Mar-27 15:34N 57°37' E 011°07'1313.1
2015-Mar-27 14:33N 57°28' E 011°26'1312.7
2015-Mar-27 13:34N 57°17' E 011°34'1312.6
2015-Mar-27 12:34N 57°05' E 011°42'1312.7
2015-Mar-27 11:34N 56°53' E 011°49'1312.8
2015-Mar-27 10:34N 56°41' E 011°57'1313.4
2015-Mar-27 09:34N 56°28' E 012°07'1313.0
2015-Mar-27 08:33N 56°18' E 012°20'1717.2
2015-Mar-27 07:33N 56°04' E 012°38'1313.0
2015-Mar-27 06:33N 55°51' E 012°44'1312.8
2015-Mar-27 05:33N 55°39' E 012°42'1211.6
2015-Mar-27 04:33N 55°27' E 012°42'1010.1
2015-Mar-27 03:33N 55°17' E 012°46'1211.9
2015-Mar-27 02:33N 55°15' E 013°07'1212.2
2015-Mar-27 01:33N 55°15' E 013°28'1212.1
2015-Mar-27 00:33N 55°14' E 013°50'1212.2
2015-Mar-26 23:33N 55°14' E 014°11'1111.4
2015-Mar-26 22:33N 55°20' E 014°27'1312.9
2015-Mar-26 21:34N 55°29' E 014°44'1313.0
2015-Mar-26 20:34N 55°36' E 015°03'1412.9
2015-Mar-26 19:29N 55°43' E 015°25'339 7.2
2015-Mar-24 20:09N 59°35' E 023°06'1017.6
2015-Mar-24 19:34N 59°39' E 023°26'1817.6
2015-Mar-24 18:31N 59°44' E 024°00'1717.5
2015-Mar-24 17:33N 59°49' E 024°33'2516.6
2015-Mar-24 16:04N 60°05' E 025°10'714.2
2015-Mar-24 15:33N 60°12' E 025°13'1 1.1
2015-Mar-24 14:33N 60°13' E 025°12'0 0.0
2015-Mar-24 13:33N 60°13' E 025°12'0 0.0
2015-Mar-24 12:33N 60°13' E 025°12'0 0.0
2015-Mar-24 11:33N 60°13' E 025°12'0 0.0
2015-Mar-24 10:32N 60°13' E 025°12'0 0.0
2015-Mar-24 09:32N 60°13' E 025°12'0 0.0
2015-Mar-24 08:32N 60°13' E 025°12'0 0.0
2015-Mar-24 07:32N 60°13' E 025°12'0 0.0
2015-Mar-24 06:32N 60°13' E 025°12'0 0.0
2015-Mar-24 05:32N 60°13' E 025°12'0 0.0
2015-Mar-24 04:32N 60°13' E 025°12'0 0.0
2015-Mar-24 03:32N 60°13' E 025°12'0 0.0
2015-Mar-24 02:32N 60°13' E 025°12'0 0.0
2015-Mar-24 01:29N 60°13' E 025°12'0 0.0
2015-Mar-24 00:32N 60°13' E 025°12'0 0.0
2015-Mar-23 23:32N 60°13' E 025°12'0 0.0
2015-Mar-23 22:32N 60°13' E 025°12'0 0.0
2015-Mar-23 21:32N 60°13' E 025°12'0 0.4
2015-Mar-23 20:33N 60°13' E 025°12'34 3.4
2015-Mar-23 10:31N 59°59' E 026°15'9 9.0
2015-Mar-23 09:33N 60°01' E 026°32'9 9.1
2015-Mar-23 08:33N 60°01' E 026°50'9 9.0
2015-Mar-23 07:33N 60°01' E 027°08'9 0.2
2015-Mar-21 19:10N 59°59' E 026°50'812.0
2015-Mar-21 18:30N 59°59' E 026°34'4811.9
2015-Mar-21 14:26N 59°47' E 025°00'1112.0
2015-Mar-21 13:34N 59°45' E 024°40'2611.9
2015-Mar-21 11:20N 59°38' E 023°49'1012.1
2015-Mar-21 10:32N 59°35' E 023°31'  

Dump ship's entire track history